Time;durP1;ratioP1;P1;durP2;ratioP2;P2;SDS_P1;SDS_P2;PMS_P1;PMS_P2;Temp;Humidity;BMP_temperature;BMP_pressure;BME280_temperature;BME280_humidity;BME280_pressure;Samples;Min_cycle;Max_cycle;Signal;HPM_P1;HPM_P2
2023/11/17 00:03:02;;;;;;;17.77;16.47;;;8.60;99.90;;;;;;10277967;28;20220;-83
2023/11/17 00:08:25;;;;;;;17.20;16.20;;;8.60;99.90;;;;;;10269692;28;20677;-83
2023/11/17 00:13:46;;;;;;;16.70;15.67;;;8.60;99.90;;;;;;10280850;28;20213;-82
2023/11/17 00:19:07;;;;;;;14.37;13.57;;;8.50;99.90;;;;;;10287635;28;20259;-83
2023/11/17 00:24:29;;;;;;;15.10;14.20;;;8.50;99.90;;;;;;10281670;28;20478;-83
2023/11/17 00:29:49;;;;;;;15.43;14.30;;;8.50;99.90;;;;;;10269296;28;20228;-82
2023/11/17 00:35:10;;;;;;;13.10;12.43;;;8.50;99.90;;;;;;10250045;28;20217;-83
2023/11/17 00:40:33;;;;;;;14.07;13.27;;;8.50;99.90;;;;;;10273866;28;20219;-82
2023/11/17 00:45:57;;;;;;;12.63;12.03;;;8.40;99.90;;;;;;10276348;28;20228;-83
2023/11/17 00:51:18;;;;;;;13.07;12.27;;;8.30;99.90;;;;;;10276730;28;20220;-83
2023/11/17 00:56:45;;;;;;;12.57;11.97;;;8.30;99.90;;;;;;10261729;28;20200;-82
2023/11/17 01:02:16;;;;;;;11.87;11.37;;;8.40;99.90;;;;;;10255408;28;20213;-82
2023/11/17 01:07:38;;;;;;;11.70;11.00;;;8.30;99.90;;;;;;10294087;28;20634;-82
2023/11/17 01:13:01;;;;;;;11.40;10.90;;;8.30;99.90;;;;;;10245018;28;20366;-82
2023/11/17 01:18:22;;;;;;;11.53;10.80;;;8.20;99.90;;;;;;10271345;28;20196;-82
2023/11/17 01:23:42;;;;;;;10.60;10.00;;;8.20;99.90;;;;;;10270602;28;20207;-82
2023/11/17 01:29:05;;;;;;;12.00;11.20;;;8.10;99.90;;;;;;10271799;28;20621;-81
2023/11/17 01:34:27;;;;;;;10.80;10.30;;;8.10;99.90;;;;;;10279501;28;20228;-79
2023/11/17 01:39:47;;;;;;;10.20;9.60;;;8.10;99.90;;;;;;10258055;28;20299;-81
2023/11/17 01:45:10;;;;;;;11.17;10.67;;;8.10;99.90;;;;;;10283845;28;20200;-80
2023/11/17 01:50:32;;;;;;;11.73;11.23;;;8.10;99.90;;;;;;10224998;28;1070664;-79
2023/11/17 01:55:53;;;;;;;11.50;10.90;;;8.10;99.90;;;;;;10251551;28;20291;-81
2023/11/17 02:01:15;;;;;;;12.67;12.07;;;8.10;99.90;;;;;;10263501;28;20265;-79
2023/11/17 02:06:44;;;;;;;12.30;11.70;;;8.10;99.90;;;;;;10265101;28;20666;-81
2023/11/17 02:12:16;;;;;;;13.67;12.87;;;8.10;99.90;;;;;;10261073;28;20225;-81
2023/11/17 02:17:42;;;;;;;12.70;12.00;;;8.10;99.90;;;;;;10258961;28;20208;-81
2023/11/17 02:23:10;;;;;;;12.70;12.10;;;8.10;99.90;;;;;;10252911;28;20220;-81
2023/11/17 02:28:36;;;;;;;12.90;12.00;;;8.10;99.90;;;;;;10263098;28;20193;-81
2023/11/17 02:34:03;;;;;;;13.13;12.43;;;8.10;99.90;;;;;;10239645;28;20224;-81
2023/11/17 02:39:26;;;;;;;15.40;14.40;;;8.10;99.90;;;;;;10274243;28;20224;-80
2023/11/17 02:44:46;;;;;;;15.67;14.57;;;8.10;99.90;;;;;;10244927;28;20208;-81
2023/11/17 02:50:10;;;;;;;16.07;14.90;;;8.20;99.90;;;;;;10262074;28;20262;-81
2023/11/17 02:55:35;;;;;;;16.90;15.70;;;8.20;99.90;;;;;;10283757;28;20315;-81
2023/11/17 03:00:56;;;;;;;17.63;16.17;;;8.30;99.90;;;;;;10254050;28;20691;-80
2023/11/17 03:06:18;;;;;;;17.20;15.80;;;8.30;99.90;;;;;;10254367;28;20196;-81
2023/11/17 03:11:41;;;;;;;17.80;16.47;;;8.30;99.90;;;;;;10276529;28;20244;-81
2023/11/17 03:17:01;;;;;;;16.63;15.43;;;8.40;99.90;;;;;;10245698;28;20201;-81
2023/11/17 03:22:23;;;;;;;14.90;13.80;;;8.40;99.90;;;;;;10246200;28;20220;-81
2023/11/17 03:27:47;;;;;;;15.47;14.27;;;8.40;99.90;;;;;;10254314;28;20208;-80
2023/11/17 03:33:08;;;;;;;16.07;14.93;;;8.40;99.90;;;;;;10252969;28;20228;-80
2023/11/17 03:38:31;;;;;;;14.53;13.63;;;8.40;99.90;;;;;;10258120;28;20200;-80
2023/11/17 03:43:53;;;;;;;14.43;13.60;;;8.40;99.90;;;;;;10258611;28;20224;-81
2023/11/17 03:49:14;;;;;;;13.23;12.53;;;8.30;99.90;;;;;;10265193;28;20235;-83
2023/11/17 03:54:37;;;;;;;14.20;13.40;;;8.30;99.90;;;;;;10270325;28;20232;-80
2023/11/17 03:59:59;;;;;;;12.60;12.00;;;8.30;99.90;;;;;;10273863;29;20223;-80
2023/11/17 04:05:20;;;;;;;12.70;12.10;;;8.30;99.90;;;;;;10286001;28;20192;-81
2023/11/17 04:10:42;;;;;;;8.83;8.43;;;8.30;99.90;;;;;;10285016;28;20220;-80
2023/11/17 04:16:04;;;;;;;12.90;12.30;;;8.30;99.90;;;;;;10264112;28;20200;-79
2023/11/17 04:21:25;;;;;;;13.57;12.77;;;8.30;99.90;;;;;;10278609;28;20212;-81
2023/11/17 04:26:48;;;;;;;13.90;13.20;;;8.30;99.90;;;;;;10267064;28;20196;-81
2023/11/17 04:32:09;;;;;;;14.30;13.30;;;8.30;99.90;;;;;;10277676;28;20228;-80
2023/11/17 04:37:29;;;;;;;14.00;13.23;;;8.30;99.90;;;;;;10313961;28;20195;-81
2023/11/17 04:42:51;;;;;;;15.13;14.30;;;8.20;99.90;;;;;;10310424;28;20689;-80
2023/11/17 04:48:12;;;;;;;12.10;11.50;;;8.20;99.90;;;;;;10296315;28;20204;-80
2023/11/17 04:53:33;;;;;;;9.20;8.50;;;8.20;99.90;;;;;;10295125;28;20357;-80
2023/11/17 04:58:56;;;;;;;13.83;12.53;;;8.20;99.90;;;;;;10292590;28;20227;-80
2023/11/17 05:04:17;;;;;;;11.57;10.77;;;8.10;99.90;;;;;;10287796;28;20204;-77
2023/11/17 05:09:38;;;;;;;8.60;8.13;;;8.10;99.90;;;;;;10294759;28;20227;-80
2023/11/17 05:15:02;;;;;;;13.30;12.50;;;8.10;99.90;;;;;;10291085;28;20306;-79
2023/11/17 05:20:24;;;;;;;13.30;12.33;;;8.10;99.90;;;;;;10286976;28;20223;-80
2023/11/17 05:25:45;;;;;;;9.73;9.20;;;8.10;99.90;;;;;;10261932;28;20201;-80
2023/11/17 05:31:07;;;;;;;12.83;11.93;;;8.10;99.90;;;;;;10256684;28;20224;-79
2023/11/17 05:36:27;;;;;;;16.80;12.53;;;8.10;99.90;;;;;;10295766;28;20244;-78
2023/11/17 05:41:48;;;;;;;13.03;12.10;;;8.00;99.90;;;;;;10278383;28;20261;-79
2023/11/17 05:47:10;;;;;;;11.87;11.17;;;8.00;99.90;;;;;;10258449;28;20643;-80
2023/11/17 05:52:31;;;;;;;11.27;10.40;;;7.90;99.90;;;;;;10262323;28;20223;-79
2023/11/17 05:57:51;;;;;;;11.20;10.60;;;8.00;99.90;;;;;;10288623;28;20282;-79
2023/11/17 06:03:13;;;;;;;8.17;7.70;;;7.90;99.90;;;;;;10288765;28;20216;-80
2023/11/17 06:08:35;;;;;;;7.20;6.60;;;8.00;99.90;;;;;;10298913;28;20199;-78
2023/11/17 06:13:55;;;;;;;10.20;9.40;;;8.00;99.90;;;;;;10283756;28;20208;-80
2023/11/17 06:19:17;;;;;;;7.50;6.90;;;8.00;99.90;;;;;;10275442;28;20216;-80
2023/11/17 06:24:38;;;;;;;10.37;9.67;;;8.00;99.90;;;;;;10276065;28;20608;-80
2023/11/17 06:29:59;;;;;;;11.60;10.70;;;8.00;99.90;;;;;;10274986;28;20216;-80
2023/11/17 06:35:24;;;;;;;11.83;11.13;;;8.00;99.90;;;;;;10277985;28;20236;-80
2023/11/17 06:40:45;;;;;;;12.80;11.80;;;8.10;99.90;;;;;;10273432;28;20743;-78
2023/11/17 06:46:07;;;;;;;12.10;11.20;;;8.10;99.90;;;;;;10286878;28;20709;-80
2023/11/17 06:51:31;;;;;;;12.67;11.67;;;8.20;99.90;;;;;;10259125;28;20243;-80
2023/11/17 06:56:52;;;;;;;13.07;12.23;;;8.20;99.90;;;;;;10262478;28;20476;-80
2023/11/17 07:02:12;;;;;;;11.53;10.70;;;8.20;99.90;;;;;;10257916;28;20212;-79
2023/11/17 07:07:35;;;;;;;9.10;8.30;;;8.20;99.90;;;;;;10326205;23;20211;-78
2023/11/17 07:12:55;;;;;;;12.93;12.10;;;8.10;99.90;;;;;;10333501;28;20250;-78
2023/11/17 07:18:16;;;;;;;12.13;11.10;;;8.20;99.90;;;;;;10279078;28;20314;-78
2023/11/17 07:23:43;;;;;;;12.33;11.43;;;8.20;99.90;;;;;;10308113;28;20195;-78
2023/11/17 07:29:04;;;;;;;13.70;12.50;;;8.20;99.90;;;;;;10325236;28;20592;-78
2023/11/17 07:34:25;;;;;;;11.47;10.57;;;8.20;99.90;;;;;;10323489;28;20346;-78
2023/11/17 07:39:47;;;;;;;12.13;11.17;;;8.30;99.90;;;;;;10323333;28;20214;-78
2023/11/17 07:45:10;;;;;;;12.43;11.53;;;8.40;99.90;;;;;;10322148;28;20274;-78
2023/11/17 07:50:32;;;;;;;11.77;10.93;;;8.40;99.90;;;;;;10321357;28;20207;-77
2023/11/17 07:55:55;;;;;;;10.23;9.63;;;8.50;99.90;;;;;;10319881;28;20590;-77
2023/11/17 08:01:15;;;;;;;12.70;11.70;;;8.60;99.90;;;;;;10310224;28;20204;-78
2023/11/17 08:06:36;;;;;;;9.40;8.57;;;8.70;99.90;;;;;;10299981;28;20720;-78
2023/11/17 08:11:59;;;;;;;10.67;10.07;;;8.80;99.90;;;;;;10315569;28;20211;-78
2023/11/17 08:17:19;;;;;;;8.83;8.33;;;8.80;99.90;;;;;;10311788;28;20227;-78
2023/11/17 08:22:40;;;;;;;9.93;9.33;;;8.80;99.90;;;;;;10310048;28;20200;-78
2023/11/17 08:28:02;;;;;;;11.10;10.40;;;8.80;99.90;;;;;;10316573;28;20219;-78
2023/11/17 08:33:23;;;;;;;10.10;9.50;;;8.80;99.90;;;;;;10315273;28;20219;-78
2023/11/17 08:38:44;;;;;;;11.80;10.67;;;8.80;99.90;;;;;;10315198;28;20310;-77
2023/11/17 08:44:06;;;;;;;11.97;11.27;;;8.90;99.90;;;;;;10299617;28;20573;-77
2023/11/17 08:49:29;;;;;;;14.27;13.20;;;8.90;99.90;;;;;;10314086;28;20613;-77
2023/11/17 08:54:49;;;;;;;12.70;11.90;;;9.00;99.90;;;;;;10312580;28;20243;-77
2023/11/17 09:00:14;;;;;;;13.10;12.30;;;9.00;99.90;;;;;;10294150;28;20200;-78
2023/11/17 09:05:35;;;;;;;11.70;11.00;;;9.10;99.90;;;;;;10296394;28;20219;-78
2023/11/17 09:10:55;;;;;;;10.37;9.80;;;9.10;99.90;;;;;;10313855;28;20246;-78
2023/11/17 09:16:17;;;;;;;10.40;9.90;;;9.20;99.90;;;;;;10313060;28;20223;-78
2023/11/17 09:21:38;;;;;;;8.90;8.30;;;9.10;99.90;;;;;;10310836;28;20571;-78
2023/11/17 09:26:58;;;;;;;9.07;8.67;;;9.10;99.90;;;;;;10312989;28;20219;-78
2023/11/17 09:32:21;;;;;;;8.07;7.53;;;9.20;99.90;;;;;;10313041;28;20211;-78
2023/11/17 09:37:50;;;;;;;8.73;8.23;;;9.20;99.90;;;;;;10312704;28;20231;-78
2023/11/17 09:43:16;;;;;;;6.13;5.73;;;9.30;99.90;;;;;;10312655;28;20192;-78
2023/11/17 09:48:40;;;;;;;8.37;7.87;;;9.40;99.90;;;;;;10311085;28;20216;-78
2023/11/17 09:54:02;;;;;;;8.00;7.60;;;9.50;99.90;;;;;;10296304;28;20611;-78
2023/11/17 09:59:23;;;;;;;6.80;6.50;;;9.50;99.90;;;;;;10309884;28;20223;-78
2023/11/17 10:04:45;;;;;;;7.43;6.93;;;9.60;99.90;;;;;;10311567;28;20204;-78
2023/11/17 10:10:14;;;;;;;6.67;6.37;;;9.50;99.90;;;;;;10314841;28;20223;-79
2023/11/17 10:15:37;;;;;;;5.20;5.00;;;9.50;99.90;;;;;;10319043;28;20303;-79
2023/11/17 10:21:00;;;;;;;7.17;6.87;;;9.50;99.90;;;;;;10317960;28;20196;-79
2023/11/17 10:26:22;;;;;;;6.33;6.00;;;9.60;99.90;;;;;;10312340;28;20302;-78
2023/11/17 10:31:47;;;;;;;6.70;6.40;;;9.60;99.90;;;;;;10328064;28;20207;-78
2023/11/17 10:37:09;;;;;;;6.00;5.60;;;9.60;99.90;;;;;;10299344;28;20219;-77
2023/11/17 10:42:32;;;;;;;5.37;5.17;;;9.70;99.90;;;;;;10302667;28;20207;-78
2023/11/17 10:47:52;;;;;;;6.10;5.80;;;9.70;99.90;;;;;;10302466;28;20704;-78
2023/11/17 10:53:19;;;;;;;4.73;4.53;;;9.70;99.90;;;;;;10305253;28;20307;-78
2023/11/17 10:58:52;;;;;;;5.40;5.00;;;9.70;99.90;;;;;;10301444;28;20215;-78
2023/11/17 11:04:15;;;;;;;4.00;3.90;;;9.80;99.90;;;;;;10285040;28;20470;-77
2023/11/17 11:09:37;;;;;;;5.10;4.87;;;9.80;99.90;;;;;;10298682;28;20227;-78
2023/11/17 11:14:58;;;;;;;5.80;5.50;;;9.80;99.90;;;;;;10298137;28;20712;-78
2023/11/17 11:20:21;;;;;;;3.80;3.70;;;9.80;99.90;;;;;;10299601;28;20279;-78
2023/11/17 11:25:45;;;;;;;4.50;4.30;;;9.90;99.90;;;;;;10284139;28;20728;-78
2023/11/17 11:31:07;;;;;;;4.60;4.40;;;9.90;99.90;;;;;;10286448;28;20603;-79
2023/11/17 11:36:28;;;;;;;3.47;3.37;;;10.00;99.90;;;;;;10305385;28;20310;-79
2023/11/17 11:41:50;;;;;;;3.70;3.60;;;10.10;99.90;;;;;;10302087;28;20208;-79
2023/11/17 11:47:10;;;;;;;4.23;3.93;;;10.20;99.90;;;;;;10296708;28;20215;-78
2023/11/17 11:52:40;;;;;;;3.83;3.63;;;10.20;99.90;;;;;;10296740;28;20199;-79
2023/11/17 11:58:03;;;;;;;3.60;3.50;;;10.20;99.90;;;;;;10296608;28;20216;-78
2023/11/17 12:03:25;;;;;;;3.60;3.50;;;10.30;99.90;;;;;;10292183;28;20220;-78
2023/11/17 12:08:53;;;;;;;4.40;4.13;;;10.20;99.90;;;;;;10296130;28;20230;-78
2023/11/17 12:14:16;;;;;;;2.27;2.17;;;10.20;99.90;;;;;;10300759;28;20216;-79
2023/11/17 12:19:37;;;;;;;2.53;2.40;;;10.20;99.90;;;;;;10301474;28;20302;-79
2023/11/17 12:25:00;;;;;;;2.90;2.80;;;10.20;99.90;;;;;;10285694;28;20624;-78
2023/11/17 12:30:24;;;;;;;3.60;3.40;;;10.20;99.90;;;;;;10300829;28;20207;-79
2023/11/17 12:35:44;;;;;;;3.03;2.83;;;10.20;99.90;;;;;;10298359;28;20306;-79
2023/11/17 12:41:06;;;;;;;2.80;2.70;;;10.20;99.90;;;;;;10299636;28;20248;-78
2023/11/17 12:46:31;;;;;;;1.60;1.50;;;10.20;99.90;;;;;;10297211;28;20244;-79
2023/11/17 12:51:51;;;;;;;2.97;2.87;;;10.30;99.90;;;;;;10282899;28;20669;-78
2023/11/17 12:57:13;;;;;;;2.97;2.87;;;10.20;99.90;;;;;;10281906;28;20223;-78
2023/11/17 13:02:35;;;;;;;2.20;2.10;;;10.20;99.90;;;;;;10323806;28;20285;-78
2023/11/17 13:07:56;;;;;;;2.03;1.93;;;10.20;99.90;;;;;;10358338;23;20610;-79
2023/11/17 13:13:16;;;;;;;2.20;2.10;;;10.20;99.90;;;;;;10320994;28;20219;-80
2023/11/17 13:18:39;;;;;;;2.33;2.23;;;10.20;99.90;;;;;;10303504;28;20239;-79
2023/11/17 13:24:05;;;;;;;1.93;1.83;;;10.20;99.90;;;;;;10334470;28;20196;-80
2023/11/17 13:29:25;;;;;;;1.33;1.23;;;10.20;99.90;;;;;;10336319;28;20231;-81
2023/11/17 13:34:55;;;;;;;2.40;2.30;;;10.20;99.90;;;;;;10297073;28;20215;-79
2023/11/17 13:40:26;;;;;;;2.40;2.30;;;10.10;99.90;;;;;;10336001;28;20226;-81
2023/11/17 13:45:50;;;;;;;1.60;1.50;;;10.20;99.90;;;;;;10334573;28;20211;-81
2023/11/17 13:51:15;;;;;;;1.90;1.80;;;10.10;99.90;;;;;;10339140;28;20190;-81
2023/11/17 13:56:38;;;;;;;2.30;2.20;;;10.10;99.90;;;;;;10333452;28;20651;-81
2023/11/17 14:02:00;;;;;;;1.80;1.70;;;10.10;99.90;;;;;;10333162;28;20591;-80
2023/11/17 14:07:23;;;;;;;2.40;2.20;;;10.10;99.90;;;;;;10333236;28;20223;-81
2023/11/17 14:12:45;;;;;;;7.83;2.37;;;10.00;99.90;;;;;;10343796;28;20207;-78
2023/11/17 14:18:09;;;;;;;2.20;2.10;;;10.00;99.90;;;;;;10331420;28;20594;-80
2023/11/17 14:23:31;;;;;;;1.93;1.83;;;9.90;99.90;;;;;;10339554;28;20202;-79
2023/11/17 14:28:52;;;;;;;2.40;2.30;;;9.80;99.90;;;;;;10328579;28;20226;-78
2023/11/17 14:34:21;;;;;;;2.50;2.40;;;9.70;99.90;;;;;;10327431;28;20211;-78
2023/11/17 14:39:43;;;;;;;2.70;2.00;;;9.70;99.90;;;;;;10326904;28;20254;-79
2023/11/17 14:45:04;;;;;;;2.20;2.10;;;9.70;99.90;;;;;;10326263;28;20200;-79
2023/11/17 14:50:25;;;;;;;2.33;2.23;;;9.80;99.90;;;;;;10328297;28;20227;-80
2023/11/17 14:55:47;;;;;;;2.40;2.30;;;9.90;99.90;;;;;;10326791;28;20223;-79
2023/11/17 15:01:08;;;;;;;3.10;2.90;;;9.90;99.90;;;;;;10307475;28;20199;-79
2023/11/17 15:06:29;;;;;;;2.33;2.23;;;10.00;99.90;;;;;;10300445;28;20286;-79
2023/11/17 15:11:53;;;;;;;2.57;2.43;;;10.00;99.90;;;;;;10342548;28;20207;-79
2023/11/17 15:17:15;;;;;;;2.73;2.63;;;9.90;99.90;;;;;;10326779;28;20227;-79
2023/11/17 15:22:38;;;;;;;3.70;3.50;;;9.90;99.90;;;;;;10330112;28;20282;-79
2023/11/17 15:28:00;;;;;;;2.60;2.50;;;9.90;99.90;;;;;;10329834;28;20266;-79
2023/11/17 15:33:21;;;;;;;3.80;3.50;;;9.90;99.90;;;;;;10314570;28;20263;-79
2023/11/17 15:38:42;;;;;;;4.40;3.73;;;9.80;99.90;;;;;;10312170;28;20306;-81
2023/11/17 15:44:05;;;;;;;3.17;2.60;;;9.80;99.90;;;;;;10334369;28;20676;-79
2023/11/17 15:49:28;;;;;;;3.80;3.60;;;9.70;99.90;;;;;;10335574;28;20665;-79
2023/11/17 15:54:50;;;;;;;3.70;3.50;;;9.70;99.90;;;;;;10328507;28;20611;-78
2023/11/17 16:00:14;;;;;;;4.60;4.30;;;9.70;99.90;;;;;;10350660;28;20242;-78
2023/11/17 16:05:35;;;;;;;4.43;4.13;;;9.60;99.90;;;;;;10352141;28;20202;-78
2023/11/17 16:10:56;;;;;;;5.27;4.80;;;9.60;99.90;;;;;;10341349;28;20230;-79
2023/11/17 16:16:21;;;;;;;4.90;4.60;;;9.50;99.90;;;;;;10324398;28;20219;-81
2023/11/17 16:21:41;;;;;;;4.60;4.30;;;9.40;99.90;;;;;;10332945;28;20198;-81
2023/11/17 16:27:02;;;;;;;6.20;4.03;;;9.30;99.90;;;;;;10330686;28;20223;-81
2023/11/17 16:32:24;;;;;;;4.60;4.30;;;9.10;99.90;;;;;;10332515;28;20199;-81
2023/11/17 16:37:47;;;;;;;4.43;4.20;;;9.00;99.90;;;;;;10320247;28;20227;-81
2023/11/17 16:43:09;;;;;;;7.10;6.50;;;8.90;99.90;;;;;;10342159;28;20203;-78
2023/11/17 16:48:32;;;;;;;5.17;4.77;;;8.70;99.90;;;;;;10326311;28;20297;-79
2023/11/17 16:53:53;;;;;;;6.40;5.93;;;8.60;99.90;;;;;;10337057;28;20223;-79
2023/11/17 16:59:14;;;;;;;7.90;6.80;;;8.50;99.90;;;;;;10329924;28;20227;-77
2023/11/17 17:04:36;;;;;;;9.27;5.80;;;8.40;99.90;;;;;;10343112;28;20200;-79
2023/11/17 17:09:56;;;;;;;7.23;6.60;;;8.30;99.90;;;;;;10321060;28;20227;-79
2023/11/17 17:15:17;;;;;;;7.97;7.40;;;8.30;99.90;;;;;;10313379;28;20227;-79
2023/11/17 17:20:40;;;;;;;5.33;4.93;;;8.20;99.90;;;;;;10335403;28;20222;-79
2023/11/17 17:26:01;;;;;;;8.40;7.60;;;8.20;99.90;;;;;;10327685;28;20215;-79
2023/11/17 17:31:21;;;;;;;11.30;10.20;;;8.20;99.90;;;;;;10323886;28;20270;-77
2023/11/17 17:36:43;;;;;;;8.53;7.90;;;8.10;99.90;;;;;;10318723;28;20303;-79
2023/11/17 17:42:04;;;;;;;8.70;7.87;;;8.10;99.90;;;;;;10319876;28;20203;-79
2023/11/17 17:47:25;;;;;;;8.67;7.50;;;8.10;99.90;;;;;;10329106;28;20231;-80
2023/11/17 17:52:49;;;;;;;8.90;8.20;;;8.10;99.90;;;;;;10316119;28;20208;-79
2023/11/17 17:58:09;;;;;;;8.97;8.27;;;8.10;99.90;;;;;;10329667;28;20653;-79
2023/11/17 18:03:30;;;;;;;8.20;7.50;;;8.20;99.90;;;;;;10331978;28;20621;-77
2023/11/17 18:08:52;;;;;;;6.43;5.93;;;8.20;99.90;;;;;;10321858;28;20238;-78
2023/11/17 18:14:14;;;;;;;4.90;4.60;;;8.20;99.90;;;;;;10312968;28;20591;-79
2023/11/17 18:19:34;;;;;;;5.00;4.60;;;8.10;99.90;;;;;;10308733;28;20231;-80
2023/11/17 18:24:57;;;;;;;4.40;4.20;;;8.10;99.90;;;;;;10330496;28;20677;-78
2023/11/17 18:30:18;;;;;;;3.77;3.57;;;8.10;99.90;;;;;;10329624;28;20251;-80
2023/11/17 18:35:39;;;;;;;3.93;3.63;;;8.10;99.90;;;;;;10327959;28;20309;-78
2023/11/17 18:41:03;;;;;;;2.77;2.67;;;8.10;99.90;;;;;;10328980;28;20203;-80
2023/11/17 18:46:25;;;;;;;4.23;3.93;;;8.00;99.90;;;;;;10330067;28;20227;-79
2023/11/17 18:51:47;;;;;;;5.20;4.80;;;8.00;99.90;;;;;;10325860;28;20342;-80
2023/11/17 18:57:10;;;;;;;4.13;3.83;;;8.00;99.90;;;;;;10331530;28;20265;-80
2023/11/17 19:02:31;;;;;;;4.97;4.67;;;8.00;99.90;;;;;;10327509;28;20210;-81
2023/11/17 19:07:54;;;;;;;4.40;4.10;;;8.00;99.90;;;;;;10334494;28;20306;-80
2023/11/17 19:13:16;;;;;;;4.47;4.17;;;8.00;99.90;;;;;;10316715;28;20254;-79
2023/11/17 19:18:37;;;;;;;5.83;5.40;;;7.90;99.90;;;;;;10330158;28;20708;-79
2023/11/17 19:23:57;;;;;;;4.40;4.10;;;7.90;99.90;;;;;;10334519;28;20203;-80
2023/11/17 19:29:20;;;;;;;4.57;4.30;;;7.80;99.90;;;;;;10338142;28;20222;-80
2023/11/17 19:34:40;;;;;;;4.50;4.20;;;7.70;99.90;;;;;;10342598;28;20315;-80
2023/11/17 19:40:01;;;;;;;6.00;5.60;;;7.70;99.90;;;;;;10323911;28;20227;-80
2023/11/17 19:45:24;;;;;;;5.90;5.40;;;7.70;99.90;;;;;;10341987;28;20223;-78
2023/11/17 19:50:45;;;;;;;5.27;4.77;;;7.60;99.90;;;;;;10342135;28;20238;-80
2023/11/17 19:56:07;;;;;;;5.77;5.27;;;7.60;99.90;;;;;;10337772;28;20329;-79
2023/11/17 20:01:29;;;;;;;4.43;4.10;;;7.60;99.90;;;;;;10335113;28;20196;-79
2023/11/17 20:06:51;;;;;;;5.30;4.90;;;7.80;99.90;;;;;;10337504;28;20230;-80
2023/11/17 20:12:13;;;;;;;4.67;4.27;;;7.90;99.90;;;;;;10332125;28;20208;-80
2023/11/17 20:17:35;;;;;;;4.00;3.70;;;8.00;99.90;;;;;;10331882;28;20321;-78
2023/11/17 20:22:55;;;;;;;4.80;4.43;;;8.10;99.90;;;;;;10334974;28;20207;-79
2023/11/17 20:28:16;;;;;;;4.80;4.50;;;8.20;99.90;;;;;;10339950;28;20579;-78
2023/11/17 20:33:40;;;;;;;5.37;4.90;;;8.30;99.90;;;;;;10335985;28;20203;-80
2023/11/17 20:39:00;;;;;;;4.87;4.57;;;8.40;99.90;;;;;;10316333;28;20712;-80
2023/11/17 20:44:21;;;;;;;4.47;4.17;;;8.40;99.90;;;;;;10318112;28;20203;-80
2023/11/17 20:49:43;;;;;;;5.03;4.63;;;8.40;99.90;;;;;;10311022;28;20227;-79
2023/11/17 20:55:05;;;;;;;4.10;3.80;;;8.50;99.90;;;;;;10342667;28;20223;-79
2023/11/17 21:00:25;;;;;;;4.37;4.07;;;8.60;99.90;;;;;;10334755;28;20306;-80
2023/11/17 21:05:48;;;;;;;4.10;3.90;;;8.60;99.90;;;;;;10335662;28;20191;-79
2023/11/17 21:11:10;;;;;;;4.27;4.00;;;8.70;99.90;;;;;;10335934;28;20191;-79
2023/11/17 21:16:31;;;;;;;4.60;4.30;;;8.70;99.90;;;;;;10331421;28;20235;-78
2023/11/17 21:21:54;;;;;;;4.33;4.03;;;8.70;99.90;;;;;;10328520;28;20230;-79
2023/11/17 21:27:14;;;;;;;3.70;3.50;;;8.70;99.90;;;;;;10329544;28;20231;-80
2023/11/17 21:32:35;;;;;;;3.97;3.77;;;8.70;99.90;;;;;;10333391;28;20199;-79
2023/11/17 21:37:57;;;;;;;4.60;4.27;;;8.70;99.90;;;;;;10338709;28;20226;-79
2023/11/17 21:43:17;;;;;;;3.30;3.10;;;8.70;99.90;;;;;;10326427;28;20586;-80
2023/11/17 21:48:39;;;;;;;3.30;3.10;;;8.70;99.90;;;;;;10329878;28;20211;-77
2023/11/17 21:54:01;;;;;;;3.63;3.43;;;8.70;99.90;;;;;;10339584;28;20198;-80
2023/11/17 21:59:21;;;;;;;3.50;3.30;;;8.70;99.90;;;;;;10324470;28;20969;-79
2023/11/17 22:04:42;;;;;;;3.40;3.20;;;8.70;99.90;;;;;;10332226;28;20203;-79
2023/11/17 22:10:05;;;;;;;3.43;3.23;;;8.80;99.90;;;;;;10324831;28;20852;-80
2023/11/17 22:15:26;;;;;;;3.97;3.77;;;8.80;99.90;;;;;;10333938;28;20227;-79
2023/11/17 22:20:48;;;;;;;3.80;3.60;;;8.80;99.90;;;;;;10323574;28;20288;-80
2023/11/17 22:26:13;;;;;;;4.20;3.90;;;8.80;99.90;;;;;;10333603;28;20211;-79
2023/11/17 22:31:34;;;;;;;3.97;3.73;;;8.80;99.90;;;;;;10332869;28;20653;-79
2023/11/17 22:36:56;;;;;;;4.20;3.90;;;8.80;99.90;;;;;;10330546;28;20219;-78
2023/11/17 22:42:19;;;;;;;3.90;3.70;;;8.80;99.90;;;;;;10325450;28;20206;-77
2023/11/17 22:47:41;;;;;;;4.23;4.00;;;8.80;99.90;;;;;;10330743;28;20301;-79
2023/11/17 22:53:02;;;;;;;3.90;3.70;;;8.80;99.90;;;;;;10328904;28;20206;-80
2023/11/17 22:58:25;;;;;;;4.80;4.40;;;8.80;99.90;;;;;;10322990;28;20787;-78
2023/11/17 23:03:45;;;;;;;3.97;3.73;;;8.80;99.90;;;;;;10326704;28;20677;-79
2023/11/17 23:09:09;;;;;;;4.67;4.37;;;8.80;99.90;;;;;;10329669;28;20223;-78
2023/11/17 23:14:31;;;;;;;4.70;4.40;;;8.80;99.90;;;;;;10322900;28;20203;-78
2023/11/17 23:19:53;;;;;;;4.63;4.33;;;8.80;99.90;;;;;;10322064;28;20698;-79
2023/11/17 23:25:14;;;;;;;4.90;4.60;;;8.80;99.90;;;;;;10314621;28;20279;-79
2023/11/17 23:30:36;;;;;;;5.10;4.70;;;8.70;99.90;;;;;;10318574;28;20234;-78
2023/11/17 23:35:56;;;;;;;5.80;5.43;;;8.60;99.90;;;;;;10325955;28;20231;-79
2023/11/17 23:41:18;;;;;;;6.23;5.77;;;8.60;99.90;;;;;;10321363;28;20673;-79
2023/11/17 23:46:42;;;;;;;5.67;5.17;;;8.60;99.90;;;;;;10313877;28;20222;-79
2023/11/17 23:52:04;;;;;;;5.07;4.70;;;8.50;99.90;;;;;;10312727;28;20204;-79
2023/11/17 23:57:24;;;;;;;5.30;4.83;;;8.50;99.90;;;;;;10310239;28;20222;-78
